Columbus, NC

3:49 AM EDT on September 27, 2016 (GMT -0400)
| | Change Station

Elev -9999 ft 0.00 °N, 0.00 °E | Updated

Mostly Cloudy
Mostly Cloudy
66 °F
Feels Like 66 °F
N
2
Wind Variable Wind from WSW
Gusts mph

Today
High -- | Low -- °F
--% Chance of Precip.
Yesterday
High -- | Low -- °F
Precip. -- in
Pressure 30.02 in
Visibility 2.5 miles
Clouds Overcast 400 ft
Dew Point 66 °F
Humidity 98%
Rainfall --
Snow Depth Not available.
7:21 AM 7:17 PM
Waning Crescent, 13% visible
METAR KFQD 270725Z AUTO 19004KT 2 1/2SM BR OVC004 20/20 A3002 RMK AO2 T01950195
Pressure 30.02 in
Visibility 2.5 miles
Clouds Overcast 400 ft
Dew Point 66 °F
Humidity 98%
Rainfall --
Snow Depth Not available.
7:21 AM 7:17 PM
Waning Crescent, 13% visible
METAR KFQD 270725Z AUTO 19004KT 2 1/2SM BR OVC004 20/20 A3002 RMK AO2 T01950195

10-Day Weather Forecast

Almanac

Astronomy

Sep. 27, 2016 Rise Set
Actual Time
Civil Twilight
Nautical Twilight
Astronomical Twilight
Moon
Length of Visible Light
Length of Day
Tomorrow will be .
, % of the Moon is Illuminated

Today's Extremes

State Highs State Lows

Community

WunderPhotos

Upload Photos

1,942,040 photos uploaded!

WunderBlog® & News

Nearby

Air Quality

  Air Quality AQ Index Pollutant
Not available.

Snow Depth

Station Depth Elevation

Earthquake Activity

City Distance Mag. Time & Date
Minimum magnitude displayed is 2.5.

Coastal Water Temperatures

Place Temperature

Stations

Nearby Weather Stations

Station Location Temp. Windchill Dew Point Humidity Wind Precip. Elev Updated Type
                   

Watches & Warnings

There are currently no watches in effect.